createdAt,value
2023-08-15T00:01:06.685Z,28.65
2023-08-15T00:03:34.912Z,28.59
2023-08-15T00:06:02.443Z,28.56
2023-08-15T00:08:29.863Z,28.79
2023-08-15T00:10:57.312Z,28.77
2023-08-15T00:13:24.761Z,28.57
2023-08-15T00:15:52.215Z,28.74
2023-08-15T00:18:19.685Z,28.65
2023-08-15T05:31:48.253Z,24.97
2023-08-15T05:34:15.802Z,25.28
2023-08-15T05:43:42.944Z,25.60
2023-08-15T05:46:10.406Z,25.81
2023-08-15T05:48:38.446Z,25.90
2023-08-15T05:51:05.893Z,25.93
2023-08-15T05:53:33.321Z,26.31
2023-08-15T05:56:00.789Z,26.40
2023-08-15T05:58:28.226Z,26.51
2023-08-15T06:00:56.339Z,26.57
2023-08-15T06:03:40.618Z,26.71
2023-08-15T06:06:11.352Z,26.80
2023-08-15T06:08:38.774Z,26.80
2023-08-15T06:11:07.213Z,26.73
2023-08-15T06:13:34.638Z,26.67
2023-08-15T06:16:02.070Z,26.88
2023-08-15T06:18:29.520Z,26.81
2023-08-15T06:20:57.093Z,26.93
2023-08-15T06:23:24.572Z,26.90
2023-08-15T06:25:52.045Z,26.92
2023-08-15T06:28:21.765Z,27.05
2023-08-15T06:30:49.268Z,27.11
2023-08-15T06:33:16.742Z,27.06
2023-08-15T06:35:44.260Z,27.16
2023-08-15T06:38:11.832Z,27.02
2023-08-15T06:40:40.885Z,27.01
2023-08-15T06:43:08.316Z,27.14
2023-08-15T06:45:39.048Z,27.12
2023-08-15T06:48:07.427Z,27.09
2023-08-15T06:50:35.005Z,27.13
2023-08-15T06:53:02.516Z,27.11
2023-08-15T06:55:30.020Z,27.10
2023-08-15T06:57:58.108Z,27.21
2023-08-15T07:00:25.626Z,27.19
2023-08-15T07:02:53.123Z,27.31
2023-08-15T07:05:20.615Z,27.43
2023-08-15T07:07:48.231Z,27.62
2023-08-15T07:10:15.824Z,27.59
2023-08-15T07:12:45.010Z,27.45
2023-08-15T07:15:13.257Z,27.49
2023-08-15T07:17:41.694Z,27.37
2023-08-15T07:20:11.703Z,27.49
2023-08-15T07:22:39.745Z,27.46
2023-08-15T07:25:08.303Z,27.49
2023-08-15T07:27:35.992Z,27.72
2023-08-15T07:30:03.842Z,27.69
2023-08-15T07:32:31.332Z,27.75
2023-08-15T07:34:58.813Z,27.61
2023-08-15T07:37:26.345Z,27.69
2023-08-15T07:40:10.743Z,27.98
2023-08-15T07:42:38.631Z,27.98
2023-08-15T07:45:08.519Z,28.06
2023-08-15T07:47:37.597Z,28.25
2023-08-15T07:50:28.590Z,28.05
2023-08-15T07:53:01.044Z,28.26
2023-08-15T07:55:33.234Z,28.43
2023-08-15T07:58:01.242Z,28.43
2023-08-15T08:00:28.990Z,28.60
2023-08-15T08:02:56.636Z,28.28
2023-08-15T08:05:24.283Z,28.70
2023-08-15T08:07:52.579Z,28.86
2023-08-15T08:10:20.189Z,28.93
2023-08-15T08:12:48.081Z,28.94
2023-08-15T08:15:15.935Z,28.99
2023-08-15T08:17:43.788Z,28.96
2023-08-15T08:20:14.663Z,29.06
2023-08-15T08:22:42.209Z,29.13
2023-08-15T08:25:22.893Z,29.29
2023-08-15T08:27:51.763Z,29.46
2023-08-15T08:30:22.601Z,29.15
2023-08-15T08:32:52.289Z,29.42
2023-08-15T08:35:20.116Z,29.42
2023-08-15T08:37:48.877Z,29.45
2023-08-15T08:40:18.674Z,29.48
2023-08-15T08:42:47.011Z,29.56
2023-08-15T08:45:15.948Z,29.34
2023-08-15T08:47:44.981Z,29.53
2023-08-15T08:50:13.403Z,29.61
2023-08-15T08:52:46.584Z,29.51
2023-08-15T08:55:13.980Z,29.78
2023-08-15T08:57:44.298Z,29.67
2023-08-15T09:00:16.108Z,29.85
2023-08-15T09:02:44.496Z,29.98
2023-08-15T09:05:13.328Z,29.86
2023-08-15T09:07:43.399Z,29.89
2023-08-15T09:10:11.255Z,29.76
2023-08-15T09:12:41.434Z,29.75
2023-08-15T09:15:11.404Z,29.78
2023-08-15T09:17:44.017Z,29.84
2023-08-15T09:20:19.693Z,29.70
2023-08-15T09:22:49.194Z,29.85
2023-08-15T09:25:21.597Z,29.78
2023-08-15T09:27:49.144Z,29.92
2023-08-15T09:30:18.675Z,29.25
2023-08-15T09:32:48.271Z,29.53
2023-08-15T09:35:19.832Z,29.55
2023-08-15T09:37:51.232Z,29.51
2023-08-15T09:40:27.062Z,29.36
2023-08-15T09:42:55.704Z,29.81
2023-08-15T09:45:24.113Z,29.72
2023-08-15T09:47:51.893Z,29.73
2023-08-15T09:50:19.497Z,29.86
2023-08-15T09:52:52.597Z,30.01
2023-08-15T09:55:21.200Z,29.99
2023-08-15T09:57:48.739Z,29.83
2023-08-15T10:00:17.916Z,29.82
2023-08-15T10:03:08.815Z,29.94
2023-08-15T10:05:40.593Z,29.90
2023-08-15T10:08:10.888Z,29.92
2023-08-15T10:10:39.547Z,30.00
2023-08-15T10:13:09.462Z,30.15
2023-08-15T10:15:37.911Z,30.17
2023-08-15T10:18:06.563Z,30.11
2023-08-15T10:20:38.558Z,30.15
2023-08-15T10:23:10.773Z,30.25
2023-08-15T10:25:42.682Z,30.22
2023-08-15T10:28:13.679Z,30.47
2023-08-15T10:30:52.371Z,30.31
2023-08-15T10:33:32.867Z,30.72
2023-08-15T10:36:00.234Z,30.75
2023-08-15T10:38:36.589Z,30.67
2023-08-15T10:41:19.007Z,30.83
2023-08-15T10:43:57.013Z,30.99
2023-08-15T10:46:31.763Z,31.23
2023-08-15T10:49:12.340Z,30.91
2023-08-15T10:51:42.673Z,31.01
2023-08-15T10:54:16.146Z,30.95
2023-08-15T10:56:44.782Z,30.81
2023-08-15T10:59:18.772Z,30.69
2023-08-15T11:01:48.520Z,30.98
2023-08-15T11:04:18.860Z,31.20
2023-08-15T11:06:50.598Z,31.20
2023-08-15T11:09:18.804Z,31.24
2023-08-15T11:11:47.216Z,31.24
2023-08-15T11:14:21.321Z,31.37
2023-08-15T11:16:50.756Z,31.54
2023-08-15T11:19:20.976Z,31.50
2023-08-15T11:21:49.656Z,31.56
2023-08-15T11:24:17.586Z,31.47
2023-08-15T11:26:45.744Z,32.01
2023-08-15T11:29:14.518Z,32.54
2023-08-15T11:31:43.109Z,32.46
2023-08-15T11:34:12.897Z,32.54
2023-08-15T11:36:41.208Z,32.42
2023-08-15T11:39:14.212Z,32.67
2023-08-15T11:41:42.808Z,32.59
2023-08-15T11:44:10.285Z,32.24
2023-08-15T11:49:19.763Z,31.84
2023-08-15T11:51:47.231Z,32.47
2023-08-15T11:54:14.724Z,32.58
2023-08-15T11:56:54.433Z,32.65
2023-08-15T11:59:23.771Z,32.93
2023-08-15T12:01:51.562Z,33.04
2023-08-15T12:04:19.869Z,32.88
2023-08-15T12:06:47.520Z,32.67
2023-08-15T12:09:15.173Z,32.97
2023-08-15T12:11:42.671Z,32.84
2023-08-15T12:14:22.403Z,33.17
2023-08-15T12:16:49.957Z,33.47
2023-08-15T12:19:21.758Z,33.49
2023-08-15T12:21:52.420Z,33.75
2023-08-15T12:24:19.965Z,33.88
2023-08-15T12:26:47.436Z,34.01
2023-08-15T12:29:17.234Z,34.63
2023-08-15T12:31:45.871Z,34.48
2023-08-15T12:34:13.539Z,34.52
2023-08-15T12:36:41.022Z,34.89
2023-08-15T12:39:09.112Z,34.57
2023-08-15T12:41:37.444Z,34.60
2023-08-15T12:44:05.221Z,34.96
2023-08-15T12:46:32.693Z,34.60
2023-08-15T12:49:03.404Z,33.98
2023-08-15T12:51:32.596Z,34.20
2023-08-15T12:54:00.293Z,34.28
2023-08-15T12:56:27.806Z,33.85
2023-08-15T12:58:55.728Z,33.95
2023-08-15T13:01:24.159Z,34.03
2023-08-15T13:03:52.744Z,34.39
2023-08-15T13:06:20.414Z,34.32
2023-08-15T13:08:47.883Z,34.76
2023-08-15T13:11:16.861Z,34.54
2023-08-15T13:13:44.421Z,34.28
2023-08-15T13:16:12.756Z,33.93
2023-08-15T13:18:40.273Z,34.25
2023-08-15T13:21:08.715Z,34.21
2023-08-15T13:23:36.214Z,34.14
2023-08-15T13:26:04.781Z,34.47
2023-08-15T13:28:32.220Z,34.60
2023-08-15T13:30:59.697Z,34.57
2023-08-15T13:33:27.271Z,35.04
2023-08-15T13:35:54.879Z,35.09
2023-08-15T13:38:22.334Z,35.43
2023-08-15T13:40:50.371Z,35.68
2023-08-15T13:43:17.852Z,35.48
2023-08-15T13:45:45.369Z,35.18
2023-08-15T13:48:12.903Z,34.72
2023-08-15T13:50:40.400Z,34.48
2023-08-15T13:53:07.869Z,34.73
2023-08-15T13:55:35.447Z,34.74
2023-08-15T13:58:03.387Z,35.00
2023-08-15T14:00:33.636Z,34.59
2023-08-15T14:03:01.329Z,34.53
2023-08-15T14:05:28.888Z,34.52
2023-08-15T14:07:56.437Z,34.34
2023-08-15T14:10:24.209Z,34.50
2023-08-15T14:12:51.670Z,34.38
2023-08-15T14:15:19.520Z,33.67
2023-08-15T14:17:47.013Z,33.44
2023-08-15T14:20:14.504Z,33.75
2023-08-15T14:22:42.005Z,33.91
2023-08-15T14:25:10.063Z,34.32
2023-08-15T14:27:37.566Z,34.47
2023-08-15T14:30:05.761Z,34.95
2023-08-15T14:32:33.445Z,34.46
2023-08-15T14:35:00.980Z,34.33
2023-08-15T14:37:29.229Z,34.26
2023-08-15T14:39:56.704Z,34.39
2023-08-15T14:42:24.627Z,34.64
2023-08-15T14:44:52.520Z,34.24
2023-08-15T14:47:33.791Z,34.48
2023-08-15T14:50:04.073Z,34.26
2023-08-15T14:52:32.119Z,34.05
2023-08-15T14:54:59.726Z,34.38
2023-08-15T14:57:27.266Z,34.69
2023-08-15T14:59:54.928Z,34.78
2023-08-15T15:02:25.002Z,34.97
2023-08-15T15:04:53.304Z,35.22
2023-08-15T15:07:20.753Z,35.26
2023-08-15T15:09:48.240Z,35.37
2023-08-15T15:12:15.697Z,35.23
2023-08-15T15:14:43.275Z,35.45
2023-08-15T15:17:10.740Z,35.55
2023-08-15T15:19:38.205Z,34.70
2023-08-15T15:22:07.592Z,34.82
2023-08-15T15:24:35.042Z,35.21
2023-08-15T15:27:03.667Z,35.09
2023-08-15T15:29:31.121Z,35.52
2023-08-15T15:31:58.648Z,35.80
2023-08-15T15:34:26.246Z,35.29
2023-08-15T15:36:53.690Z,34.98
2023-08-15T15:39:21.185Z,35.28
2023-08-15T15:41:48.700Z,35.63
2023-08-15T15:44:16.160Z,34.79
2023-08-15T15:46:54.323Z,35.33
2023-08-15T15:49:23.793Z,35.04
2023-08-15T15:51:52.330Z,34.95
2023-08-15T15:54:20.026Z,35.05
2023-08-15T15:56:47.651Z,34.79
2023-08-15T15:59:15.171Z,34.82
2023-08-15T16:01:42.884Z,35.04
2023-08-15T16:04:10.632Z,34.86
2023-08-15T16:06:38.243Z,34.73
2023-08-15T16:09:06.057Z,34.87
2023-08-15T16:11:33.831Z,35.06
2023-08-15T16:14:02.160Z,34.57
2023-08-15T16:16:29.757Z,34.28
2023-08-15T16:18:57.242Z,34.39
2023-08-15T16:21:24.757Z,34.51
2023-08-15T16:23:52.161Z,34.69
2023-08-15T16:26:19.675Z,34.74
2023-08-15T16:28:47.344Z,34.79
2023-08-15T16:31:14.859Z,34.82
2023-08-15T16:33:42.472Z,34.69
2023-08-15T16:36:10.227Z,34.50
2023-08-15T16:38:37.651Z,34.35
2023-08-15T16:41:05.305Z,34.31
2023-08-15T16:43:32.807Z,34.62
2023-08-15T16:46:00.388Z,34.33
2023-08-15T16:48:28.569Z,34.47
2023-08-15T16:50:56.092Z,34.33
2023-08-15T16:53:23.535Z,34.18
2023-08-15T16:55:51.036Z,33.78
2023-08-15T16:58:18.690Z,33.96
2023-08-15T17:00:46.240Z,34.18
2023-08-15T17:03:13.898Z,34.04
2023-08-15T17:05:41.457Z,33.39
2023-08-15T17:08:08.984Z,33.47
2023-08-15T17:10:36.429Z,33.56
2023-08-15T17:13:04.403Z,33.45
2023-08-15T17:15:33.673Z,33.55
2023-08-15T17:18:01.883Z,33.41
2023-08-15T17:20:29.414Z,33.43
2023-08-15T17:22:56.843Z,33.30
2023-08-15T17:25:24.294Z,33.43
2023-08-15T17:27:52.753Z,33.23
2023-08-15T17:30:20.659Z,33.21
2023-08-15T17:32:48.362Z,32.94
2023-08-15T17:35:15.833Z,32.68
2023-08-15T17:37:43.318Z,32.50
2023-08-15T17:40:11.632Z,32.62
2023-08-15T17:42:39.804Z,32.75
2023-08-15T17:45:08.358Z,32.69
2023-08-15T17:47:36.147Z,32.49
2023-08-15T17:50:03.725Z,32.54
2023-08-15T17:52:31.213Z,32.75
2023-08-15T17:54:58.715Z,32.26
2023-08-15T17:57:26.208Z,32.50
2023-08-15T17:59:53.616Z,32.70
2023-08-15T18:02:21.391Z,32.52
2023-08-15T18:04:49.153Z,32.26
2023-08-15T18:07:16.585Z,32.35
2023-08-15T18:09:44.940Z,32.25
2023-08-15T18:12:12.532Z,32.32
2023-08-15T18:14:42.190Z,32.47
2023-08-15T18:17:10.274Z,32.11
2023-08-15T18:19:39.261Z,32.14
2023-08-15T18:22:08.530Z,32.11
2023-08-15T18:24:36.642Z,32.34
2023-08-15T18:27:04.316Z,32.15
2023-08-15T18:29:31.913Z,32.03
2023-08-15T18:31:59.460Z,31.76
2023-08-15T18:34:26.989Z,31.85
2023-08-15T18:36:54.487Z,31.74
2023-08-15T18:39:22.385Z,31.64
2023-08-15T18:41:49.887Z,31.62
2023-08-15T18:44:17.470Z,31.66
2023-08-15T18:46:47.725Z,31.59
2023-08-15T18:49:15.431Z,31.54
2023-08-15T18:51:42.882Z,31.46
2023-08-15T18:54:10.345Z,31.44
2023-08-15T18:56:37.803Z,31.40
2023-08-15T18:59:05.354Z,31.35
2023-08-15T19:01:32.887Z,31.27
2023-08-15T19:04:00.426Z,31.29
2023-08-15T19:06:27.993Z,31.28
2023-08-15T19:08:55.515Z,31.26
2023-08-15T19:11:23.071Z,31.24
2023-08-15T19:13:50.473Z,31.26
2023-08-15T19:16:17.930Z,31.14
2023-08-15T19:18:45.431Z,31.05
2023-08-15T19:21:14.288Z,30.72
2023-08-15T19:23:41.770Z,31.06
2023-08-15T19:26:09.205Z,31.09
2023-08-15T19:28:37.065Z,30.89
2023-08-15T19:31:13.038Z,30.67
2023-08-15T19:33:40.522Z,30.89
2023-08-15T19:36:08.158Z,30.73
2023-08-15T19:38:35.595Z,30.80
2023-08-15T19:41:03.078Z,30.69
2023-08-15T19:43:30.501Z,30.77
2023-08-15T19:45:57.939Z,30.73
2023-08-15T19:48:25.439Z,30.68
2023-08-15T19:50:53.005Z,30.67
2023-08-15T19:53:20.494Z,30.74
2023-08-15T19:55:47.948Z,30.52
2023-08-15T19:58:15.956Z,30.63
2023-08-15T20:00:45.013Z,30.59
2023-08-15T20:03:12.534Z,30.53
2023-08-15T20:05:40.003Z,30.45
2023-08-15T20:08:07.540Z,30.44
2023-08-15T20:10:35.038Z,30.16
2023-08-15T20:13:02.488Z,30.01
2023-08-15T20:15:29.902Z,29.88
2023-08-15T20:17:57.354Z,30.04
2023-08-15T20:20:24.831Z,29.83
2023-08-15T20:22:52.346Z,29.83
2023-08-15T20:25:19.769Z,30.09
2023-08-15T20:27:47.214Z,30.05
2023-08-15T20:30:15.573Z,29.98
2023-08-15T20:32:43.030Z,30.07
2023-08-15T20:35:11.025Z,29.71
2023-08-15T20:37:39.189Z,29.67
2023-08-15T20:40:08.361Z,29.37
2023-08-15T20:42:36.803Z,29.12
2023-08-15T20:45:05.809Z,29.28
2023-08-15T20:47:33.572Z,29.58
2023-08-15T20:50:01.122Z,29.53
2023-08-15T20:52:28.727Z,29.16
2023-08-15T20:54:56.241Z,29.28
2023-08-15T20:57:23.802Z,29.30
2023-08-15T20:59:51.845Z,29.49
2023-08-15T21:02:19.507Z,29.42
2023-08-15T21:04:46.957Z,29.35
2023-08-15T21:07:14.477Z,29.40
2023-08-15T21:09:42.002Z,29.57
2023-08-15T21:12:09.659Z,29.28
2023-08-15T21:14:37.115Z,29.49
2023-08-15T21:17:04.573Z,29.36
2023-08-15T21:19:32.006Z,29.28
2023-08-15T21:21:59.474Z,29.30
2023-08-15T21:24:26.915Z,29.28
2023-08-15T21:26:54.445Z,29.12
2023-08-15T21:29:22.000Z,29.23
2023-08-15T21:31:50.825Z,29.08
2023-08-15T21:34:18.590Z,29.15
2023-08-15T21:36:46.104Z,29.09
2023-08-15T21:39:13.871Z,29.20
2023-08-15T21:41:41.291Z,28.92
2023-08-15T21:44:09.075Z,28.78
2023-08-15T21:46:36.701Z,28.87
2023-08-15T21:49:04.431Z,29.18
2023-08-15T21:51:31.893Z,28.98
2023-08-15T21:53:59.398Z,28.95
2023-08-15T21:56:30.356Z,28.99
2023-08-15T21:58:58.906Z,28.72
2023-08-15T22:01:26.557Z,28.65
2023-08-15T22:03:54.139Z,28.72
2023-08-15T22:06:21.947Z,28.68
2023-08-15T22:08:49.440Z,28.48
2023-08-15T22:11:16.860Z,28.65
2023-08-15T22:13:44.302Z,28.60
2023-08-15T22:16:11.825Z,28.54
2023-08-15T22:18:39.517Z,28.35
2023-08-15T22:21:07.011Z,28.45
2023-08-15T22:23:34.690Z,28.48
2023-08-15T22:26:02.273Z,28.35
2023-08-15T22:28:29.745Z,28.35
2023-08-15T22:30:57.233Z,28.22
2023-08-15T22:33:24.750Z,28.23
2023-08-15T22:35:52.249Z,28.17
2023-08-15T22:38:19.657Z,28.21
2023-08-15T22:40:47.151Z,28.31
2023-08-15T22:43:14.628Z,28.13
2023-08-15T22:45:46.107Z,28.13
2023-08-15T22:48:13.633Z,28.27
2023-08-15T22:50:41.352Z,28.22
2023-08-15T22:53:09.802Z,28.21
2023-08-15T22:55:37.327Z,28.02
2023-08-15T22:58:05.064Z,27.79
2023-08-15T23:00:32.517Z,27.96
2023-08-15T23:02:59.960Z,27.91
2023-08-15T23:05:27.428Z,27.67
2023-08-15T23:07:54.882Z,27.87
2023-08-15T23:10:22.344Z,27.83
2023-08-15T23:12:49.819Z,27.79
2023-08-15T23:15:17.415Z,27.76
2023-08-15T23:17:44.850Z,27.78
2023-08-15T23:20:13.191Z,27.66
2023-08-15T23:22:40.661Z,27.72
2023-08-15T23:25:09.788Z,27.58
2023-08-15T23:27:37.757Z,27.59
2023-08-15T23:30:07.371Z,27.72
2023-08-15T23:32:35.375Z,27.53
2023-08-15T23:35:02.848Z,27.42
2023-08-15T23:37:30.293Z,27.48
2023-08-15T23:39:58.262Z,27.46
2023-08-15T23:42:25.718Z,27.33
2023-08-15T23:44:53.240Z,27.07
2023-08-15T23:47:21.035Z,27.31
2023-08-15T23:49:49.230Z,27.28
2023-08-15T23:52:16.784Z,27.23
2023-08-15T23:54:44.236Z,27.06
2023-08-15T23:57:12.191Z,27.23
2023-08-15T23:59:39.624Z,27.10
